首页
METAR-TAF:

METAR-TAF

机场 :

波普拉德, 斯洛伐克

纬度: 49-04N, 经度: 020-15E, 海拔: 694米

当前天气观测

该预报发布于27分钟前的16:00 UTC
风速4节,风向北转东北,在之间变化
温度 5°C
湿度 75%
气压 1018 hPa
能见度10公里或以上
1500米以下无云,无积雨云

METAR: LZTT 171600Z 03004KT 010V090 CAVOK 05/01 Q1018 NOSIG

时间: 17:27 (16:27 UTC)

预报

该预报发布于5小时和27分钟前的11:00 UTC
预报有效从17日的 12点(UTC)到 18日的 12点(UTC)
风速8节,风向东南
能见度10公里或以上
1500米以下无云,无积雨云
成为
从 17日的 17点(UTC)到 17日的 19点(UTC)
风速4节,风向西南
成为
从 18日的 00点(UTC)到 18日的 02点(UTC)
能见度10公里或以上
散云层高于2000英尺
多云层高于6000英尺
几率 40% :
短暂存在
从 18日的 00点(UTC)到 18日的 08点(UTC)
能見度: 4000
散云层高于500英尺
多云层高于2300英尺
(小) 冻, 雨
成为
从 18日的 03点(UTC)到 18日的 05点(UTC)
风速15节,风向西

TAF: LZTT 171100Z 1712/1812 13008KT CAVOK BECMG 1717/1719 23004KT BECMG 1800/1802 9999 SCT020 BKN060 PROB40 TEMPO 1800/1808 4000 -FZRA SCT005 BKN023 BECMG 1803/1805 26015KT

超过4000个机场的气象观测和天气预报(METAR&TAF报告)。

可查询的气象台以黄色和红色小点在地图上表示。

将鼠标移到小点上方,可查看气象台名称。

然后点击查看天气观测和预报。

如需切换地图:点击带黑十字的绿色按钮放大地图;点击带横线的绿色按钮缩小地图;或者点击绿色箭头查看邻近地区的地图。


METAR-TAF: